Lansing, Michigan
Current Conditions -  °F | °C
As of 11:14 AM on Thursday 27 Nov 2014 (Local Time) from KLAN Reporting Station
Light Snow Light Snow  
Wind Chill: 21°   Ceiling: 1500
Heat Index: 30°   Visibility: 5mi
Dew Point: 23°   Wind: 10mph
Humidity: 75%   Direction: 270°W
Pressure: 30.19"   Gusts: NA
Location:  42.73°N, 84.55°W
Report Text: KLAN 271614Z 27009KT 5SM -SN BKN015 BKN027 OVC065 M01/M05 A3019 RMK AO2 SNB12 P0000 T10111050
Loading
Personal Weather Stations






























Interactive Weather Map New forecast layout! Learn more

10-Day Weather Forecast

Advertisements
Track Severe Weather on mobile